Time;durP1;ratioP1;P1;durP2;ratioP2;P2;SDS_P1;SDS_P2;PMS_P1;PMS_P2;Temp;Humidity;BMP_temperature;BMP_pressure;BME280_temperature;BME280_humidity;BME280_pressure;Samples;Min_cycle;Max_cycle;Signal;HPM_P1;HPM_P2
2022/09/15 00:02:03;;;;;;;31.03;22.03;;;14.40;99.90;;;;;;4882586;29;20187;-77
2022/09/15 00:04:28;;;;;;;27.53;22.20;;;14.40;99.90;;;;;;4896701;29;20247;-77
2022/09/15 00:06:54;;;;;;;26.30;19.97;;;14.40;99.90;;;;;;4882598;29;20207;-76
2022/09/15 00:09:19;;;;;;;30.70;22.27;;;14.40;99.90;;;;;;4882536;29;20271;-77
2022/09/15 00:11:45;;;;;;;32.57;21.07;;;14.40;99.90;;;;;;4882560;29;20207;-75
2022/09/15 00:14:11;;;;;;;29.63;21.43;;;14.30;99.90;;;;;;4882335;29;20660;-75
2022/09/15 00:16:37;;;;;;;29.70;19.67;;;14.20;99.90;;;;;;4882487;29;20215;-77
2022/09/15 00:19:03;;;;;;;32.40;20.37;;;14.20;99.90;;;;;;4882185;29;20683;-76
2022/09/15 00:21:31;;;;;;;25.47;19.53;;;14.20;99.90;;;;;;4882380;29;20424;-76
2022/09/15 00:23:59;;;;;;;27.67;20.97;;;14.20;99.90;;;;;;4882036;29;20398;-75
2022/09/15 00:26:26;;;;;;;27.60;18.77;;;14.30;99.90;;;;;;4882206;29;20434;-75
2022/09/15 00:28:52;;;;;;;29.07;19.47;;;14.20;99.90;;;;;;4882037;29;20444;-76
2022/09/15 00:31:21;;;;;;;30.63;19.97;;;14.30;99.90;;;;;;4882234;29;20475;-76
2022/09/15 00:33:53;;;;;;;31.70;20.60;;;14.30;99.90;;;;;;4881826;29;20467;-77
2022/09/15 00:36:20;;;;;;;26.90;19.87;;;14.30;99.90;;;;;;4882175;29;20444;-76
2022/09/15 00:38:47;;;;;;;26.10;17.70;;;14.30;99.90;;;;;;4880886;29;20432;-75
2022/09/15 00:41:15;;;;;;;29.80;19.30;;;14.20;99.90;;;;;;4881405;29;20493;-76
2022/09/15 00:43:44;;;;;;;38.10;18.60;;;14.30;99.90;;;;;;4881772;29;20417;-77
2022/09/15 00:46:09;;;;;;;23.80;18.17;;;14.40;99.90;;;;;;4881621;29;20452;-76
2022/09/15 00:48:38;;;;;;;26.93;18.70;;;14.30;99.90;;;;;;4881914;29;20934;-77
2022/09/15 00:51:07;;;;;;;26.80;17.80;;;14.30;99.90;;;;;;4881759;29;20595;-75
2022/09/15 00:53:33;;;;;;;23.97;17.33;;;14.30;99.90;;;;;;4881733;29;20435;-74
2022/09/15 00:56:01;;;;;;;26.10;17.47;;;14.40;99.90;;;;;;4881207;29;20460;-75
2022/09/15 00:58:31;;;;;;;23.80;17.03;;;14.40;99.90;;;;;;4881783;29;20829;-76
2022/09/15 01:00:59;;;;;;;21.53;16.83;;;14.40;99.90;;;;;;4881833;29;20431;-76
2022/09/15 01:03:29;;;;;;;24.43;18.00;;;14.40;99.90;;;;;;4881770;29;20451;-76
2022/09/15 01:05:59;;;;;;;21.97;16.37;;;14.30;99.90;;;;;;4881252;29;21028;-76
2022/09/15 01:08:40;;;;;;;24.37;18.07;;;14.30;99.90;;;;;;4896195;29;20439;-76
2022/09/15 01:11:05;;;;;;;23.33;17.70;;;14.20;99.90;;;;;;4881705;29;20467;-75
2022/09/15 01:13:31;;;;;;;24.67;18.53;;;14.20;99.90;;;;;;4881488;29;20890;-76
2022/09/15 01:16:18;;;;;;;23.90;18.90;;;14.20;99.90;;;;;;4880971;29;20215;-75
2022/09/15 01:19:15;;;;;;;23.37;17.27;;;14.10;99.90;;;;;;4881323;29;20263;-76
2022/09/15 01:21:52;;;;;;;26.27;17.70;;;14.10;99.90;;;;;;4895948;29;20479;-75
2022/09/15 01:24:23;;;;;;;29.50;18.53;;;14.10;99.90;;;;;;4881136;29;20431;-75
2022/09/15 01:27:15;;;;;;;23.97;16.77;;;14.10;99.90;;;;;;4881305;29;20538;-75
2022/09/15 01:29:52;;;;;;;22.87;19.30;;;14.10;99.90;;;;;;4881269;29;20523;-76
2022/09/15 01:35:32;;;;;;;23.53;18.10;;;14.10;99.90;;;;;;4880900;29;20504;-76
2022/09/15 01:38:11;;;;;;;21.03;16.50;;;14.20;99.90;;;;;;4880934;29;20905;-74
2022/09/15 01:41:05;;;;;;;27.23;18.60;;;14.10;99.90;;;;;;4895366;29;20424;-75
2022/09/15 01:43:35;;;;;;;26.53;18.47;;;14.10;99.90;;;;;;4880947;29;20420;-75
2022/09/15 01:46:02;;;;;;;31.97;19.93;;;14.10;99.90;;;;;;4880364;29;20499;-75
2022/09/15 01:48:30;;;;;;;24.43;17.70;;;14.10;99.90;;;;;;4880716;29;20424;-75
2022/09/15 01:51:01;;;;;;;25.93;18.40;;;14.10;99.90;;;;;;4880200;29;20544;-75
2022/09/15 01:53:27;;;;;;;25.57;18.57;;;14.10;99.90;;;;;;4880574;29;20416;-75
2022/09/15 01:56:04;;;;;;;23.40;18.20;;;14.10;99.90;;;;;;4880313;29;20432;-74
2022/09/15 01:58:30;;;;;;;21.37;17.13;;;14.10;99.90;;;;;;4880382;29;20774;-75
2022/09/15 02:01:39;;;;;;;23.83;16.70;;;14.10;99.90;;;;;;4880549;29;20395;-75
2022/09/15 02:04:14;;;;;;;33.03;18.00;;;14.10;99.90;;;;;;4880266;29;20447;-75
2022/09/15 02:06:54;;;;;;;25.80;18.10;;;14.10;99.90;;;;;;4880447;29;20531;-75
2022/09/15 02:09:28;;;;;;;22.13;16.03;;;14.10;99.90;;;;;;4880703;29;20420;-75
2022/09/15 02:12:06;;;;;;;23.20;16.83;;;14.00;99.90;;;;;;4880649;29;20463;-75
2022/09/15 02:14:35;;;;;;;20.00;16.57;;;14.00;99.90;;;;;;4880189;29;20416;-76
2022/09/15 02:17:01;;;;;;;25.77;17.50;;;14.10;99.90;;;;;;4880273;29;20432;-75
2022/09/15 02:19:40;;;;;;;19.93;16.77;;;14.10;99.90;;;;;;4894708;29;20432;-76
2022/09/15 02:22:17;;;;;;;21.87;17.30;;;14.10;99.90;;;;;;4880508;29;20431;-76
2022/09/15 02:24:50;;;;;;;21.03;16.40;;;14.10;99.90;;;;;;4879926;29;20383;-75
2022/09/15 02:27:23;;;;;;;20.50;16.00;;;14.10;99.90;;;;;;4880121;29;20489;-75
2022/09/15 02:29:50;;;;;;;22.00;16.70;;;14.10;99.90;;;;;;4880186;29;20415;-75
2022/09/15 02:32:19;;;;;;;21.97;17.03;;;14.20;99.90;;;;;;4880039;29;20893;-76
2022/09/15 02:34:50;;;;;;;19.70;16.47;;;14.10;99.90;;;;;;4879564;29;20424;-75
2022/09/15 02:37:17;;;;;;;21.50;17.23;;;14.10;99.90;;;;;;4878789;29;20451;-75
2022/09/15 02:39:49;;;;;;;18.17;16.23;;;14.10;99.90;;;;;;4880009;29;20503;-76
2022/09/15 02:42:29;;;;;;;20.40;16.87;;;14.00;99.90;;;;;;4879896;29;20979;-75
2022/09/15 02:44:56;;;;;;;21.90;16.27;;;13.90;99.90;;;;;;4879603;29;20422;-74
2022/09/15 02:47:22;;;;;;;24.07;17.77;;;14.00;99.90;;;;;;4878587;29;20984;-75
2022/09/15 02:49:48;;;;;;;25.00;17.47;;;13.90;99.90;;;;;;4894101;29;20941;-75
2022/09/15 02:52:14;;;;;;;22.33;15.90;;;13.90;99.90;;;;;;4879673;29;20466;-76
2022/09/15 02:54:39;;;;;;;18.40;15.20;;;13.90;99.90;;;;;;4879286;29;20661;-74
2022/09/15 02:57:05;;;;;;;24.00;16.23;;;13.90;99.90;;;;;;4893821;29;20212;-75
2022/09/15 03:00:11;;;;;;;23.83;15.83;;;13.80;99.90;;;;;;4879732;29;20179;-75
2022/09/15 03:02:18;;;;;;;20.97;16.27;;;13.80;99.90;;;;;;4879437;29;20440;-76
2022/09/15 03:04:48;;;;;;;20.47;15.80;;;13.80;99.90;;;;;;4879196;29;20421;-76
2022/09/15 03:07:14;;;;;;;21.57;15.40;;;13.80;99.90;;;;;;4879543;29;20933;-75
2022/09/15 03:09:39;;;;;;;16.37;14.63;;;13.70;99.90;;;;;;4879686;29;21000;-75
2022/09/15 03:12:05;;;;;;;22.13;15.73;;;13.70;99.90;;;;;;4879481;29;20558;-76
2022/09/15 03:14:31;;;;;;;20.30;15.10;;;13.60;99.90;;;;;;4879281;29;20231;-75
2022/09/15 03:16:58;;;;;;;22.07;15.77;;;13.60;99.90;;;;;;4879252;29;20436;-76
2022/09/15 03:19:24;;;;;;;22.80;14.27;;;13.50;99.90;;;;;;4879599;29;20420;-74
2022/09/15 03:21:50;;;;;;;21.47;16.20;;;13.50;99.90;;;;;;4879542;29;20567;-75
2022/09/15 03:24:18;;;;;;;20.70;13.97;;;13.40;99.90;;;;;;4879367;29;20235;-76
2022/09/15 03:26:43;;;;;;;27.30;16.80;;;13.40;99.90;;;;;;4878367;29;21074;-74
2022/09/15 03:29:09;;;;;;;20.63;15.13;;;13.40;99.90;;;;;;4879454;29;20539;-74
2022/09/15 03:31:34;;;;;;;20.20;15.60;;;13.40;99.90;;;;;;4879420;29;20215;-75
2022/09/15 03:34:00;;;;;;;18.60;14.50;;;13.20;99.90;;;;;;4879118;29;20231;-75
2022/09/15 03:36:25;;;;;;;17.23;13.73;;;13.20;99.90;;;;;;4879386;29;20200;-75
2022/09/15 03:38:51;;;;;;;17.93;14.27;;;13.10;99.90;;;;;;4879396;29;20584;-74
2022/09/15 03:41:17;;;;;;;19.07;13.40;;;13.00;99.90;;;;;;4879194;29;20223;-74
2022/09/15 03:43:43;;;;;;;19.33;14.17;;;13.00;99.90;;;;;;4879290;29;20180;-75
2022/09/15 03:46:10;;;;;;;23.10;14.07;;;12.90;99.90;;;;;;4893364;29;20503;-76
2022/09/15 03:48:36;;;;;;;18.73;14.60;;;12.80;99.90;;;;;;4879382;29;20456;-75
2022/09/15 03:51:07;;;;;;;26.87;17.83;;;12.80;99.90;;;;;;4893366;29;20949;-74
2022/09/15 03:53:34;;;;;;;21.37;17.17;;;12.70;99.90;;;;;;4879088;29;20416;-75
2022/09/15 03:56:06;;;;;;;26.50;14.97;;;12.60;99.90;;;;;;4878830;29;20530;-73
2022/09/15 03:58:32;;;;;;;22.40;17.00;;;12.60;99.90;;;;;;4879159;29;20435;-75
2022/09/15 04:00:57;;;;;;;22.03;15.27;;;12.60;99.90;;;;;;4879139;29;20424;-75
2022/09/15 04:03:23;;;;;;;21.00;14.93;;;12.60;99.90;;;;;;4878986;29;20900;-76
2022/09/15 04:05:49;;;;;;;17.60;14.27;;;12.50;99.90;;;;;;4878697;29;20208;-75
2022/09/15 04:08:14;;;;;;;20.70;14.60;;;12.50;99.90;;;;;;4879161;29;20416;-75
2022/09/15 04:10:40;;;;;;;20.93;13.97;;;12.50;99.90;;;;;;4894035;29;20239;-75
2022/09/15 04:13:06;;;;;;;18.70;16.00;;;12.50;99.90;;;;;;4878977;29;20215;-75
2022/09/15 04:15:31;;;;;;;19.90;15.60;;;12.50;99.90;;;;;;4879322;29;20741;-74
2022/09/15 04:17:57;;;;;;;20.63;15.83;;;12.50;99.90;;;;;;4882755;29;20194;-76
2022/09/15 04:20:23;;;;;;;24.57;15.00;;;12.40;99.90;;;;;;4882574;29;20581;-74
2022/09/15 04:22:49;;;;;;;26.43;16.43;;;12.40;99.90;;;;;;4882617;29;20187;-75
2022/09/15 04:25:14;;;;;;;23.23;16.47;;;12.50;99.90;;;;;;4882150;29;20879;-75
2022/09/15 04:27:40;;;;;;;26.70;16.13;;;12.50;99.90;;;;;;4882132;29;20487;-75
2022/09/15 04:30:07;;;;;;;28.47;16.73;;;12.50;99.90;;;;;;4896921;29;20184;-74
2022/09/15 04:32:34;;;;;;;27.27;15.30;;;12.50;99.90;;;;;;4900841;29;20258;-76
2022/09/15 04:35:00;;;;;;;16.90;15.10;;;12.50;99.90;;;;;;4900572;29;20885;-75
2022/09/15 04:37:26;;;;;;;25.03;16.00;;;12.50;99.90;;;;;;4900688;29;20431;-75
2022/09/15 04:39:51;;;;;;;19.20;15.30;;;12.50;99.90;;;;;;4899555;29;20493;-75
2022/09/15 04:42:19;;;;;;;20.37;15.50;;;12.50;99.90;;;;;;4900769;29;20195;-75
2022/09/15 04:44:45;;;;;;;21.43;16.10;;;12.60;99.90;;;;;;4900565;29;20174;-75
2022/09/15 04:47:10;;;;;;;19.80;13.57;;;12.60;99.90;;;;;;4899371;29;20967;-76
2022/09/15 04:49:36;;;;;;;20.70;15.50;;;12.70;99.90;;;;;;4900578;29;20191;-75
2022/09/15 04:52:02;;;;;;;26.87;16.67;;;12.70;99.90;;;;;;4900172;29;20214;-75
2022/09/15 04:54:27;;;;;;;28.13;16.47;;;12.80;99.90;;;;;;4900230;29;20179;-75
2022/09/15 04:56:53;;;;;;;26.63;17.77;;;12.80;99.90;;;;;;4900198;29;20459;-74
2022/09/15 04:59:19;;;;;;;22.80;16.00;;;12.90;99.90;;;;;;4900476;29;20186;-76
2022/09/15 05:01:44;;;;;;;24.07;16.80;;;12.90;99.90;;;;;;4900193;29;20262;-76
2022/09/15 05:04:10;;;;;;;30.07;17.60;;;12.80;99.90;;;;;;4899989;29;20555;-75
2022/09/15 05:06:37;;;;;;;22.03;16.73;;;12.80;99.90;;;;;;4899255;29;20850;-76
2022/09/15 05:09:05;;;;;;;21.60;17.33;;;12.90;99.90;;;;;;4900476;29;20510;-76
2022/09/15 05:11:31;;;;;;;28.37;16.90;;;12.90;99.90;;;;;;4900393;29;20473;-75
2022/09/15 05:13:57;;;;;;;32.37;16.73;;;13.10;99.90;;;;;;4899402;29;20427;-76
2022/09/15 05:16:25;;;;;;;24.23;15.63;;;13.10;99.90;;;;;;4900024;29;20445;-75
2022/09/15 05:18:53;;;;;;;23.80;15.30;;;13.20;99.90;;;;;;4900199;29;20724;-76
2022/09/15 05:21:20;;;;;;;22.83;16.20;;;13.20;99.90;;;;;;4900145;29;20415;-75
2022/09/15 05:23:47;;;;;;;23.83;17.40;;;13.30;99.90;;;;;;4899797;29;20423;-76
2022/09/15 05:26:18;;;;;;;28.73;17.90;;;13.30;99.90;;;;;;4899761;29;20439;-75
2022/09/15 05:28:44;;;;;;;21.47;15.63;;;13.40;99.90;;;;;;4899710;29;20435;-76
2022/09/15 05:31:16;;;;;;;21.20;14.97;;;13.40;99.90;;;;;;4899842;29;20418;-75
2022/09/15 05:33:43;;;;;;;23.87;17.07;;;13.50;99.90;;;;;;4899881;29;20382;-75
2022/09/15 05:36:08;;;;;;;21.40;15.97;;;13.60;99.90;;;;;;4899507;29;20438;-75
2022/09/15 05:38:34;;;;;;;21.47;15.20;;;13.50;99.90;;;;;;4899855;29;20423;-75
2022/09/15 05:41:02;;;;;;;21.53;15.83;;;13.50;99.90;;;;;;4899741;29;20545;-76
2022/09/15 05:43:30;;;;;;;23.43;16.33;;;13.40;99.90;;;;;;4898494;29;20409;-76
2022/09/15 05:45:56;;;;;;;21.87;17.20;;;13.20;99.90;;;;;;4899255;29;20439;-75
2022/09/15 05:48:21;;;;;;;29.23;17.50;;;13.20;99.90;;;;;;4899584;29;20963;-75
2022/09/15 05:50:49;;;;;;;23.43;17.40;;;13.10;99.90;;;;;;4899540;29;20174;-76
2022/09/15 05:53:14;;;;;;;26.50;18.10;;;13.20;99.90;;;;;;4899419;29;20207;-75
2022/09/15 05:55:40;;;;;;;25.30;18.80;;;13.30;99.90;;;;;;4897743;29;20431;-75
2022/09/15 05:58:06;;;;;;;22.40;17.60;;;13.40;99.90;;;;;;4897989;29;20265;-76
2022/09/15 06:00:32;;;;;;;27.73;19.37;;;13.50;99.90;;;;;;4899390;29;20187;-75
2022/09/15 06:02:57;;;;;;;24.07;16.60;;;13.60;99.90;;;;;;4899283;29;20599;-75
2022/09/15 06:05:23;;;;;;;26.40;16.13;;;13.70;99.90;;;;;;4897850;29;20415;-75
2022/09/15 06:07:52;;;;;;;22.17;16.93;;;13.70;99.90;;;;;;4899130;29;20198;-75
2022/09/15 06:10:17;;;;;;;26.77;18.17;;;13.60;99.90;;;;;;4899199;29;20186;-76
2022/09/15 06:12:43;;;;;;;23.67;17.20;;;13.60;99.90;;;;;;4899051;29;20519;-75
2022/09/15 06:15:09;;;;;;;20.43;16.53;;;13.60;99.90;;;;;;4898870;29;20695;-75
2022/09/15 06:17:34;;;;;;;26.77;16.70;;;13.70;99.90;;;;;;4897843;29;20209;-76
2022/09/15 06:20:00;;;;;;;29.13;18.30;;;13.70;99.90;;;;;;4899050;29;20420;-76
2022/09/15 06:22:27;;;;;;;21.20;16.20;;;13.60;99.90;;;;;;4899241;29;20186;-75
2022/09/15 06:24:52;;;;;;;31.33;17.10;;;13.50;99.90;;;;;;4897449;29;20187;-75
2022/09/15 06:27:19;;;;;;;23.10;17.57;;;13.60;99.90;;;;;;4898610;29;20494;-76
2022/09/15 06:29:45;;;;;;;28.77;17.50;;;13.70;99.90;;;;;;4898866;29;20203;-75
2022/09/15 06:32:10;;;;;;;25.47;18.10;;;13.90;99.90;;;;;;4897403;29;20562;-75
2022/09/15 06:34:37;;;;;;;26.30;16.63;;;14.00;99.90;;;;;;4898613;29;20301;-75
2022/09/15 06:37:02;;;;;;;27.13;17.13;;;14.00;99.90;;;;;;4897323;29;20477;-75
2022/09/15 06:39:28;;;;;;;21.80;16.70;;;14.10;99.90;;;;;;4898614;29;20187;-75
2022/09/15 06:41:54;;;;;;;26.97;16.93;;;14.00;99.90;;;;;;4898618;29;20190;-76
2022/09/15 06:44:19;;;;;;;25.30;17.93;;;14.10;99.90;;;;;;4898105;29;20187;-76
2022/09/15 06:46:45;;;;;;;26.23;17.97;;;14.10;99.90;;;;;;4898576;29;20206;-75
2022/09/15 06:49:11;;;;;;;25.10;15.83;;;14.20;99.90;;;;;;4898623;29;20675;-75
2022/09/15 06:51:37;;;;;;;27.33;17.17;;;14.10;99.90;;;;;;4898399;29;20592;-75
2022/09/15 06:54:03;;;;;;;24.83;17.57;;;14.10;99.90;;;;;;4898151;29;20419;-74
2022/09/15 06:56:29;;;;;;;21.00;16.87;;;14.20;99.90;;;;;;4898238;29;20469;-76
2022/09/15 06:58:55;;;;;;;26.27;16.30;;;14.20;99.90;;;;;;4898266;29;20420;-75
2022/09/15 07:01:26;;;;;;;22.63;15.17;;;14.20;99.90;;;;;;4898444;29;20239;-75
2022/09/15 07:03:53;;;;;;;24.63;18.00;;;14.20;99.90;;;;;;4897856;29;20414;-76
2022/09/15 07:06:19;;;;;;;23.80;14.60;;;14.30;99.90;;;;;;4897988;29;20511;-75
2022/09/15 07:08:46;;;;;;;27.10;16.27;;;14.30;99.90;;;;;;4898181;29;20931;-75
2022/09/15 07:11:12;;;;;;;25.50;17.40;;;14.20;99.90;;;;;;4898219;29;20427;-76
2022/09/15 07:13:38;;;;;;;23.73;17.93;;;14.30;99.90;;;;;;4898360;29;20426;-75
2022/09/15 07:16:06;;;;;;;26.47;17.60;;;14.30;99.90;;;;;;4897995;29;20443;-74
2022/09/15 07:18:32;;;;;;;20.87;15.90;;;14.30;99.90;;;;;;4898302;29;20542;-76
2022/09/15 07:21:00;;;;;;;28.23;18.13;;;14.40;99.90;;;;;;4898265;29;20449;-74
2022/09/15 07:23:25;;;;;;;24.40;15.87;;;14.50;99.90;;;;;;4898104;29;20539;-75
2022/09/15 07:25:51;;;;;;;22.70;15.30;;;14.50;99.90;;;;;;4897739;29;20451;-76
2022/09/15 07:28:17;;;;;;;21.50;16.60;;;14.60;99.90;;;;;;4897799;29;20450;-75
2022/09/15 07:30:43;;;;;;;27.63;17.77;;;14.70;99.90;;;;;;4897907;29;20194;-76
2022/09/15 07:33:11;;;;;;;20.63;16.40;;;14.70;99.90;;;;;;4897957;29;20210;-75
2022/09/15 07:35:43;;;;;;;24.90;16.43;;;14.70;99.90;;;;;;4897587;29;20790;-76
2022/09/15 07:38:09;;;;;;;24.30;15.43;;;14.80;99.90;;;;;;4898113;29;20390;-74
2022/09/15 07:40:36;;;;;;;21.77;15.60;;;14.90;99.90;;;;;;4897956;29;20451;-74
2022/09/15 07:43:03;;;;;;;19.60;15.00;;;15.10;99.90;;;;;;4897970;29;20427;-76
2022/09/15 07:45:30;;;;;;;28.47;15.67;;;15.10;99.90;;;;;;4897477;29;20455;-75
2022/09/15 07:47:55;;;;;;;26.73;17.10;;;15.20;99.90;;;;;;4897910;29;20466;-75
2022/09/15 07:50:21;;;;;;;24.67;16.10;;;15.20;99.90;;;;;;4899621;29;20458;-76
2022/09/15 07:52:47;;;;;;;24.43;15.63;;;15.30;99.90;;;;;;4901395;29;20470;-75
2022/09/15 07:55:13;;;;;;;23.17;16.20;;;15.30;99.90;;;;;;4901414;29;20523;-75
2022/09/15 07:57:38;;;;;;;17.47;14.53;;;15.20;99.90;;;;;;4901289;29;20203;-76
2022/09/15 08:00:04;;;;;;;20.57;14.70;;;15.40;99.90;;;;;;4901379;29;20671;-74
2022/09/15 08:02:30;;;;;;;21.10;15.53;;;15.50;99.90;;;;;;4901465;29;20189;-76
2022/09/15 08:04:56;;;;;;;21.97;14.80;;;15.60;99.90;;;;;;4899725;29;20438;-76
2022/09/15 08:07:22;;;;;;;19.37;14.17;;;15.60;99.90;;;;;;4900197;29;20230;-76
2022/09/15 08:09:49;;;;;;;16.93;15.13;;;15.70;99.90;;;;;;4901416;29;20861;-75
2022/09/15 08:12:14;;;;;;;20.40;14.60;;;15.80;99.90;;;;;;4900113;29;20470;-74
2022/09/15 08:14:40;;;;;;;20.73;15.60;;;15.90;99.90;;;;;;4901010;29;20784;-76
2022/09/15 08:17:06;;;;;;;17.90;13.73;;;15.80;99.90;;;;;;4901108;29;20211;-74
2022/09/15 08:19:33;;;;;;;21.33;15.00;;;15.90;99.90;;;;;;4900034;29;20667;-75
2022/09/15 08:22:00;;;;;;;20.93;14.10;;;15.90;99.90;;;;;;4901166;29;20636;-74
2022/09/15 08:24:25;;;;;;;19.93;14.67;;;16.10;99.90;;;;;;4899576;29;20405;-76
2022/09/15 08:26:51;;;;;;;25.67;15.50;;;16.20;99.90;;;;;;4900011;29;20738;-76
2022/09/15 08:29:17;;;;;;;24.80;14.60;;;16.30;99.90;;;;;;4901046;29;20454;-76
2022/09/15 08:31:45;;;;;;;23.03;15.17;;;16.30;99.90;;;;;;4901095;29;20479;-77
2022/09/15 08:34:12;;;;;;;20.10;14.87;;;16.20;99.90;;;;;;4900784;29;20426;-74
2022/09/15 08:36:38;;;;;;;23.70;16.70;;;16.30;99.90;;;;;;4900960;29;20447;-75
2022/09/15 08:39:04;;;;;;;21.83;14.70;;;16.30;99.90;;;;;;4900824;29;20430;-76
2022/09/15 08:41:40;;;;;;;20.73;15.07;;;16.30;99.90;;;;;;4900775;29;20773;-75
2022/09/15 08:44:23;;;;;;;19.27;14.90;;;16.40;99.90;;;;;;4900539;29;20408;-75
2022/09/15 08:46:57;;;;;;;23.00;15.30;;;16.50;99.90;;;;;;4900625;29;20448;-75
2022/09/15 08:49:46;;;;;;;20.23;14.67;;;16.30;99.90;;;;;;4900535;29;20408;-76
2022/09/15 08:52:34;;;;;;;19.70;16.20;;;16.40;99.90;;;;;;4900659;29;20904;-75
2022/09/15 08:55:18;;;;;;;20.03;16.53;;;16.50;99.90;;;;;;4900187;29;20478;-76
2022/09/15 08:57:43;;;;;;;23.23;16.67;;;16.60;99.90;;;;;;4900445;29;20967;-75
2022/09/15 09:00:18;;;;;;;20.30;15.27;;;16.90;99.90;;;;;;4900157;29;20394;-74
2022/09/15 09:02:55;;;;;;;20.53;14.90;;;17.40;99.90;;;;;;4900407;29;20401;-76
2022/09/15 09:05:42;;;;;;;27.47;17.93;;;17.60;99.90;;;;;;4899920;29;20427;-76
2022/09/15 09:08:54;;;;;;;25.10;15.33;;;17.40;99.90;;;;;;4900430;29;20412;-75
2022/09/15 09:11:28;;;;;;;17.07;15.10;;;17.50;99.90;;;;;;4885252;29;20445;-75
2022/09/15 09:14:09;;;;;;;20.43;15.70;;;17.50;99.90;;;;;;4899849;29;20425;-74
2022/09/15 09:16:53;;;;;;;19.00;15.20;;;17.60;99.90;;;;;;4900315;29;20429;-75
2022/09/15 09:19:22;;;;;;;20.73;16.17;;;17.50;99.90;;;;;;4900249;29;20514;-76
2022/09/15 09:21:55;;;;;;;23.60;16.87;;;17.20;99.90;;;;;;4899149;29;20434;-74
2022/09/15 09:24:47;;;;;;;24.17;17.43;;;17.20;99.90;;;;;;4899981;29;20431;-76
2022/09/15 09:27:18;;;;;;;22.47;18.33;;;17.10;99.90;;;;;;4898435;29;20417;-75
2022/09/15 09:29:50;;;;;;;23.23;16.20;;;17.20;99.90;;;;;;4900031;29;20394;-76
2022/09/15 09:32:26;;;;;;;20.40;16.20;;;17.20;99.90;;;;;;4898770;29;21025;-76
2022/09/15 09:35:11;;;;;;;18.13;15.30;;;17.20;99.90;;;;;;4899460;29;20413;-75
2022/09/15 09:37:36;;;;;;;20.47;14.60;;;17.20;99.90;;;;;;4899512;29;20413;-76
2022/09/15 09:40:02;;;;;;;19.13;12.07;;;17.40;99.90;;;;;;4899735;29;20419;-76
2022/09/15 09:42:31;;;;;;;16.30;12.60;;;17.40;99.90;;;;;;4899945;29;20648;-76
2022/09/15 09:44:56;;;;;;;14.33;12.03;;;17.40;99.90;;;;;;4898252;29;20241;-74
2022/09/15 09:47:28;;;;;;;15.77;12.37;;;17.50;99.90;;;;;;4898429;29;20475;-74
2022/09/15 09:49:54;;;;;;;12.70;11.37;;;17.50;99.90;;;;;;4899557;29;20891;-76
2022/09/15 09:52:33;;;;;;;13.90;11.70;;;17.60;99.90;;;;;;4899559;29;20966;-76
2022/09/15 09:55:00;;;;;;;14.57;11.50;;;17.70;99.90;;;;;;4899123;29;20386;-75
2022/09/15 09:57:31;;;;;;;11.60;9.00;;;17.70;99.90;;;;;;4899345;29;20506;-75
2022/09/15 09:59:57;;;;;;;9.93;7.10;;;17.80;99.90;;;;;;4898169;29;20436;-76
2022/09/15 10:02:27;;;;;;;10.10;7.00;;;18.20;99.90;;;;;;4899349;29;20410;-76
2022/09/15 10:05:11;;;;;;;7.47;6.10;;;18.20;99.90;;;;;;4899152;29;20265;-76
2022/09/15 10:07:42;;;;;;;10.20;8.27;;;18.30;99.90;;;;;;4898106;29;20451;-75
2022/09/15 10:10:24;;;;;;;11.80;9.10;;;18.40;99.90;;;;;;4899415;29;20875;-76
2022/09/15 10:12:55;;;;;;;11.80;8.13;;;18.10;99.90;;;;;;4898540;29;20454;-76
2022/09/15 10:15:26;;;;;;;16.77;8.40;;;18.00;99.90;;;;;;4898759;29;20780;-76
2022/09/15 10:17:54;;;;;;;11.10;7.20;;;18.00;99.90;;;;;;4898979;29;20418;-76
2022/09/15 10:20:32;;;;;;;10.13;8.67;;;18.00;99.90;;;;;;4899125;29;20393;-75
2022/09/15 10:23:16;;;;;;;12.10;8.23;;;18.20;99.90;;;;;;4899042;29;20419;-76
2022/09/15 10:25:42;;;;;;;7.77;6.70;;;18.20;99.90;;;;;;4898477;29;20423;-75
2022/09/15 10:28:13;;;;;;;9.27;6.87;;;18.30;99.90;;;;;;4897529;29;20443;-76
2022/09/15 10:31:00;;;;;;;9.57;6.40;;;18.50;99.90;;;;;;4898952;29;20397;-76
2022/09/15 10:33:33;;;;;;;9.83;5.40;;;18.70;99.90;;;;;;4897626;29;20788;-75
2022/09/15 10:36:11;;;;;;;8.63;4.83;;;18.50;99.90;;;;;;4898419;29;20435;-74
2022/09/15 10:38:42;;;;;;;10.33;5.70;;;18.40;99.90;;;;;;4898753;29;20447;-75
2022/09/15 10:41:29;;;;;;;8.53;6.57;;;18.50;99.90;;;;;;4898620;29;20437;-76
2022/09/15 10:43:58;;;;;;;9.07;6.70;;;18.20;99.90;;;;;;4898223;29;20964;-74
2022/09/15 10:46:38;;;;;;;6.77;5.30;;;18.30;99.90;;;;;;4898719;29;20435;-75
2022/09/15 10:49:32;;;;;;;9.00;5.07;;;18.20;99.90;;;;;;4898641;29;20445;-76
2022/09/15 10:52:28;;;;;;;9.67;5.27;;;18.40;99.90;;;;;;4898255;29;20850;-76
2022/09/15 10:55:12;;;;;;;9.03;4.23;;;18.60;99.90;;;;;;4897981;29;20438;-76
2022/09/15 10:58:01;;;;;;;5.77;4.80;;;18.50;99.90;;;;;;4898380;29;20419;-75
2022/09/15 11:00:39;;;;;;;13.30;5.03;;;18.50;99.90;;;;;;4898343;29;20389;-75
2022/09/15 11:03:26;;;;;;;7.10;4.20;;;18.60;99.90;;;;;;4897099;29;20437;-75
2022/09/15 11:06:15;;;;;;;7.50;5.33;;;18.60;99.90;;;;;;4897882;29;20439;-75
2022/09/15 11:08:40;;;;;;;6.23;4.47;;;18.80;99.90;;;;;;4898372;29;20851;-75
2022/09/15 11:11:33;;;;;;;10.60;4.90;;;19.10;99.90;;;;;;4898121;29;20502;-75
2022/09/15 11:14:26;;;;;;;6.73;4.30;;;19.30;99.90;;;;;;4897758;29;20186;-77
2022/09/15 11:17:12;;;;;;;5.60;3.17;;;19.30;99.90;;;;;;4898074;29;20442;-76
2022/09/15 11:19:41;;;;;;;5.00;2.67;;;19.00;99.90;;;;;;4896909;29;20401;-75
2022/09/15 11:22:42;;;;;;;4.50;2.17;;;19.10;99.90;;;;;;4898343;29;20764;-75
2022/09/15 11:25:21;;;;;;;7.73;3.07;;;19.10;99.90;;;;;;4902803;29;20426;-75
2022/09/15 11:27:58;;;;;;;3.43;1.90;;;19.10;99.90;;;;;;4904461;29;20908;-75
2022/09/15 11:30:30;;;;;;;6.23;2.20;;;19.10;99.90;;;;;;4904531;29;20389;-75
2022/09/15 11:33:18;;;;;;;7.57;1.90;;;18.90;99.90;;;;;;4904354;29;20449;-76
2022/09/15 11:36:05;;;;;;;2.97;1.60;;;19.00;99.90;;;;;;4904007;29;20399;-75
2022/09/15 11:38:53;;;;;;;4.23;1.67;;;19.10;99.90;;;;;;4904215;29;20389;-76
2022/09/15 11:41:27;;;;;;;4.83;2.17;;;19.30;99.90;;;;;;4904399;29;20407;-75
2022/09/15 11:44:23;;;;;;;5.67;1.97;;;19.70;99.90;;;;;;4903932;29;20409;-75
2022/09/15 11:47:00;;;;;;;2.77;1.33;;;19.90;99.90;;;;;;4904199;29;20462;-75
2022/09/15 11:49:55;;;;;;;5.23;1.90;;;19.90;99.90;;;;;;4904281;29;20406;-75
2022/09/15 11:52:35;;;;;;;4.77;2.20;;;19.90;99.90;;;;;;4903982;29;20468;-75
2022/09/15 11:55:42;;;;;;;6.20;1.77;;;19.80;99.90;;;;;;4903821;29;20961;-76
2022/09/15 11:58:17;;;;;;;7.43;2.07;;;19.50;99.90;;;;;;4888861;29;20401;-74
2022/09/15 12:00:51;;;;;;;2.93;1.60;;;19.10;99.90;;;;;;4904046;29;20386;-75
2022/09/15 12:03:20;;;;;;;3.60;2.00;;;18.80;99.90;;;;;;4904077;29;20433;-75
2022/09/15 12:06:08;;;;;;;2.57;1.47;;;18.50;99.90;;;;;;4903509;29;20427;-75
2022/09/15 12:08:51;;;;;;;3.33;1.47;;;18.40;99.90;;;;;;4902709;29;20401;-75
2022/09/15 12:11:21;;;;;;;7.37;1.87;;;18.20;99.90;;;;;;4904103;29;20393;-75
2022/09/15 12:13:47;;;;;;;3.50;1.80;;;18.20;99.90;;;;;;4903856;29;20386;-76
2022/09/15 12:16:14;;;;;;;5.80;1.93;;;18.10;99.90;;;;;;4904059;29;20777;-75
2022/09/15 12:19:01;;;;;;;5.03;2.00;;;18.00;99.90;;;;;;4904019;29;20444;-75
2022/09/15 12:21:29;;;;;;;5.17;2.30;;;18.10;99.90;;;;;;4903867;29;20393;-76
2022/09/15 12:24:15;;;;;;;2.73;1.60;;;18.20;99.90;;;;;;4903728;29;20533;-75
2022/09/15 12:26:42;;;;;;;4.40;1.70;;;18.30;99.90;;;;;;4903850;29;20504;-75
2022/09/15 12:29:26;;;;;;;3.73;1.60;;;18.30;99.90;;;;;;4902704;29;20790;-77
2022/09/15 12:32:25;;;;;;;3.43;2.00;;;18.60;99.90;;;;;;4903829;29;20445;-75
2022/09/15 12:35:02;;;;;;;3.20;1.80;;;18.80;99.90;;;;;;4902937;29;20487;-77
2022/09/15 12:37:30;;;;;;;6.00;1.80;;;18.90;99.90;;;;;;4900624;29;20409;-78
2022/09/15 12:39:56;;;;;;;4.50;1.47;;;19.10;99.90;;;;;;4899492;29;20397;-79
2022/09/15 12:42:25;;;;;;;3.63;1.53;;;19.30;99.90;;;;;;4900890;29;20423;-79
2022/09/15 12:45:24;;;;;;;1.83;1.53;;;19.30;99.90;;;;;;4900410;29;20423;-77
2022/09/15 12:48:04;;;;;;;2.17;1.40;;;19.10;99.90;;;;;;4900366;29;20552;-77
2022/09/15 12:50:35;;;;;;;2.90;1.33;;;19.10;99.90;;;;;;4900680;29;20398;-75
2022/09/15 12:53:21;;;;;;;3.67;1.90;;;19.00;99.90;;;;;;4900470;29;20504;-75
2022/09/15 12:55:56;;;;;;;3.00;1.40;;;18.80;99.90;;;;;;4900283;29;20422;-75